createdAt,value
2017-07-03T00:01:12.346Z,4.37
2017-07-03T00:03:41.114Z,3.27
2017-07-03T00:06:09.446Z,4.93
2017-07-03T00:08:37.734Z,2.80
2017-07-03T00:11:06.339Z,5.03
2017-07-03T00:13:34.600Z,5.13
2017-07-03T00:16:02.872Z,3.17
2017-07-03T00:18:31.566Z,2.70
2017-07-03T00:20:59.860Z,5.57
2017-07-03T00:23:28.133Z,1.80
2017-07-03T00:25:56.806Z,2.53
2017-07-03T00:28:25.089Z,4.27
2017-07-03T00:30:53.384Z,2.20
2017-07-03T00:33:22.036Z,2.93
2017-07-03T00:35:50.312Z,3.97
2017-07-03T00:38:18.665Z,3.77
2017-07-03T00:40:47.581Z,3.57
2017-07-03T00:43:15.885Z,4.43
2017-07-03T00:45:44.167Z,2.70
2017-07-03T00:48:12.792Z,2.40
2017-07-03T00:50:41.171Z,3.20
2017-07-03T00:53:09.459Z,2.30
2017-07-03T00:55:38.156Z,2.70
2017-07-03T00:58:06.498Z,3.43
2017-07-03T01:00:34.894Z,2.60
2017-07-03T01:03:03.603Z,4.77
2017-07-03T01:05:31.882Z,3.53
2017-07-03T01:08:00.165Z,2.90
2017-07-03T01:10:29.088Z,2.63
2017-07-03T01:12:58.317Z,4.40
2017-07-03T01:15:26.593Z,3.23
2017-07-03T01:17:55.348Z,2.63
2017-07-03T01:20:23.622Z,3.00
2017-07-03T01:22:52.679Z,4.13
2017-07-03T01:25:21.489Z,2.20
2017-07-03T01:27:49.762Z,3.60
2017-07-03T01:30:18.138Z,6.70
2017-07-03T01:32:46.773Z,2.47
2017-07-03T01:35:15.209Z,2.63
2017-07-03T01:37:43.498Z,2.40
2017-07-03T01:40:12.957Z,2.13
2017-07-03T01:42:41.231Z,3.00
2017-07-03T01:45:09.523Z,1.47
2017-07-03T01:47:38.373Z,2.37
2017-07-03T01:50:06.644Z,3.33
2017-07-03T01:52:35.110Z,2.47
2017-07-03T01:55:03.744Z,3.00
2017-07-03T01:57:32.066Z,3.90
2017-07-03T02:00:00.332Z,2.53
2017-07-03T02:02:29.747Z,1.70
2017-07-03T02:04:58.048Z,1.40
2017-07-03T02:07:26.311Z,1.33
2017-07-03T02:09:54.956Z,1.80
2017-07-03T02:12:24.017Z,2.40
2017-07-03T02:14:52.401Z,4.37
2017-07-03T02:17:21.067Z,1.83
2017-07-03T02:19:49.394Z,1.37
2017-07-03T02:22:18.502Z,2.70
2017-07-03T02:24:47.227Z,2.10
2017-07-03T02:27:15.493Z,2.33
2017-07-03T02:29:43.788Z,2.30
2017-07-03T02:32:12.459Z,1.63
2017-07-03T02:34:40.910Z,1.30
2017-07-03T02:37:09.178Z,1.50
2017-07-03T02:39:37.891Z,1.50
2017-07-03T02:42:06.171Z,1.50
2017-07-03T02:44:34.437Z,1.43
2017-07-03T02:47:03.144Z,1.33
2017-07-03T02:49:31.445Z,3.67
2017-07-03T02:51:59.779Z,1.83
2017-07-03T02:54:28.556Z,1.97
2017-07-03T02:56:56.820Z,1.50
2017-07-03T02:59:25.128Z,1.87
2017-07-03T03:01:53.805Z,1.97
2017-07-03T03:04:22.105Z,1.33
2017-07-03T03:06:50.389Z,1.63
2017-07-03T03:09:19.161Z,1.90
2017-07-03T03:11:47.467Z,2.00
2017-07-03T03:14:16.497Z,2.10
2017-07-03T03:16:45.305Z,1.00
2017-07-03T03:19:13.674Z,1.37
2017-07-03T03:21:41.933Z,1.33
2017-07-03T03:24:10.625Z,2.50
2017-07-03T03:26:38.906Z,2.13
2017-07-03T03:29:07.436Z,1.13
2017-07-03T03:31:36.121Z,2.37
2017-07-03T03:34:04.399Z,2.17
2017-07-03T03:36:32.693Z,2.60
2017-07-03T03:39:02.138Z,1.80
2017-07-03T03:41:30.426Z,1.33
2017-07-03T03:43:58.784Z,1.43
2017-07-03T03:46:27.464Z,1.50
2017-07-03T03:48:55.708Z,2.30
2017-07-03T03:51:24.007Z,3.70
2017-07-03T03:53:52.704Z,1.13
2017-07-03T03:56:21.100Z,2.17
2017-07-03T03:58:49.464Z,2.20
2017-07-03T04:01:18.147Z,1.23
2017-07-03T04:03:46.452Z,1.77
2017-07-03T04:06:14.741Z,2.23
2017-07-03T04:08:43.385Z,2.00
2017-07-03T04:11:11.648Z,4.13
2017-07-03T04:13:39.930Z,1.63
2017-07-03T04:16:08.614Z,1.03
2017-07-03T04:18:36.898Z,1.30
2017-07-03T04:21:05.208Z,1.10
2017-07-03T04:23:33.965Z,0.97
2017-07-03T04:26:02.258Z,1.87
2017-07-03T04:28:30.532Z,1.03
2017-07-03T04:30:59.280Z,1.70
2017-07-03T04:33:27.605Z,2.20
2017-07-03T04:35:55.879Z,1.30
2017-07-03T04:38:24.647Z,1.23
2017-07-03T04:40:52.923Z,1.67
2017-07-03T04:43:21.185Z,0.80
2017-07-03T04:45:49.810Z,1.73
2017-07-03T04:48:18.860Z,1.40
2017-07-03T04:50:47.145Z,1.07
2017-07-03T04:53:15.789Z,2.10
2017-07-03T04:55:44.064Z,1.00
2017-07-03T04:58:12.351Z,1.40
2017-07-03T05:00:40.996Z,1.73
2017-07-03T05:03:10.043Z,1.10
2017-07-03T05:05:38.365Z,1.17
2017-07-03T05:08:07.751Z,1.50
2017-07-03T05:10:36.038Z,2.33
2017-07-03T05:13:04.289Z,2.77
2017-07-03T05:15:32.952Z,1.23
2017-07-03T05:18:01.221Z,0.90
2017-07-03T05:20:29.516Z,1.10
2017-07-03T05:22:58.193Z,1.80
2017-07-03T05:25:26.478Z,1.43
2017-07-03T05:27:54.875Z,0.80
2017-07-03T05:30:23.633Z,1.47
2017-07-03T05:32:51.937Z,1.57
2017-07-03T05:35:20.327Z,2.00
2017-07-03T05:37:49.777Z,0.90
2017-07-03T05:40:18.087Z,1.47
2017-07-03T05:42:52.386Z,1.23
2017-07-03T05:45:20.738Z,1.20
2017-07-03T05:47:49.034Z,1.13
2017-07-03T05:50:17.724Z,2.13
2017-07-03T05:52:46.002Z,1.00
2017-07-03T05:55:14.283Z,1.03
2017-07-03T05:57:42.913Z,1.07
2017-07-03T06:00:11.201Z,2.57
2017-07-03T06:02:39.472Z,1.10
2017-07-03T06:05:08.199Z,2.73
2017-07-03T06:07:36.602Z,3.40
2017-07-03T06:10:04.931Z,0.80
2017-07-03T06:12:33.621Z,1.23
2017-07-03T06:15:02.091Z,1.83
2017-07-03T06:17:30.509Z,1.90
2017-07-03T06:19:59.175Z,0.70
2017-07-03T06:22:27.475Z,1.53
2017-07-03T06:24:55.749Z,2.57
2017-07-03T06:27:24.405Z,1.20
2017-07-03T06:29:52.683Z,1.20
2017-07-03T06:32:21.174Z,1.70
2017-07-03T06:34:49.740Z,1.97
2017-07-03T06:37:18.008Z,1.40
2017-07-03T06:39:46.479Z,2.90
2017-07-03T06:42:15.203Z,10.60
2017-07-03T06:44:43.480Z,1.07
2017-07-03T06:47:11.757Z,1.33
2017-07-03T06:49:40.426Z,2.30
2017-07-03T06:52:08.696Z,1.80
2017-07-03T06:54:36.979Z,1.33
2017-07-03T06:57:05.630Z,0.90
2017-07-03T06:59:33.906Z,1.60
2017-07-03T07:02:02.377Z,1.23
2017-07-03T07:04:31.104Z,1.40
2017-07-03T07:06:59.398Z,1.53
2017-07-03T07:09:27.716Z,1.63
2017-07-03T07:11:56.422Z,0.80
2017-07-03T07:14:24.693Z,1.37
2017-07-03T07:16:52.985Z,2.20
2017-07-03T07:19:21.774Z,1.17
2017-07-03T07:21:50.054Z,0.77
2017-07-03T07:24:18.328Z,2.63
2017-07-03T07:26:47.026Z,2.20
2017-07-03T07:29:15.311Z,1.43
2017-07-03T07:31:43.606Z,1.37
2017-07-03T07:34:13.160Z,0.90
2017-07-03T07:36:41.452Z,1.40
2017-07-03T07:39:09.727Z,1.30
2017-07-03T07:41:38.399Z,1.43
2017-07-03T07:44:06.684Z,1.33
2017-07-03T07:46:34.953Z,3.27
2017-07-03T07:49:03.610Z,1.53
2017-07-03T07:51:31.970Z,1.17
2017-07-03T07:54:01.007Z,1.10
2017-07-03T07:56:29.621Z,0.97
2017-07-03T07:58:57.908Z,1.30
2017-07-03T08:01:26.947Z,2.60
2017-07-03T08:03:55.640Z,1.23
2017-07-03T08:06:23.926Z,3.03
2017-07-03T08:08:52.204Z,1.23
2017-07-03T08:11:20.836Z,1.50
2017-07-03T08:13:49.213Z,1.03
2017-07-03T08:16:17.481Z,1.37
2017-07-03T08:18:46.085Z,0.70
2017-07-03T08:21:14.368Z,1.30
2017-07-03T08:23:42.645Z,1.40
2017-07-03T08:26:11.292Z,0.90
2017-07-03T08:28:39.569Z,0.80
2017-07-03T08:31:08.622Z,3.30
2017-07-03T08:33:37.296Z,1.33
2017-07-03T08:36:05.596Z,2.40
2017-07-03T08:38:33.927Z,0.87
2017-07-03T08:41:02.654Z,1.17
2017-07-03T08:43:30.928Z,1.10
2017-07-03T08:45:59.227Z,0.90
2017-07-03T08:48:28.653Z,1.37
2017-07-03T08:50:56.936Z,0.93
2017-07-03T08:53:25.217Z,1.37
2017-07-03T08:55:53.995Z,1.77
2017-07-03T08:58:22.273Z,0.90
2017-07-03T09:00:50.538Z,1.60
2017-07-03T09:03:19.147Z,1.40
2017-07-03T09:05:47.428Z,2.67
2017-07-03T09:08:15.701Z,1.13
2017-07-03T09:10:44.378Z,1.10
2017-07-03T09:13:12.660Z,1.23
2017-07-03T09:15:40.969Z,1.37
2017-07-03T09:18:09.595Z,0.90
2017-07-03T09:20:37.922Z,1.60
2017-07-03T09:23:06.240Z,5.50
2017-07-03T09:25:35.697Z,1.53
2017-07-03T09:28:03.982Z,3.90
2017-07-03T09:30:32.265Z,1.10
2017-07-03T09:33:00.920Z,1.80
2017-07-03T09:35:29.216Z,2.53
2017-07-03T09:37:57.507Z,1.67
2017-07-03T09:40:26.203Z,1.40
2017-07-03T09:42:54.484Z,1.37
2017-07-03T09:45:22.764Z,2.30
2017-07-03T09:47:51.405Z,2.60
2017-07-03T09:50:19.726Z,1.27
2017-07-03T09:52:48.010Z,2.50
2017-07-03T09:55:16.736Z,4.30
2017-07-03T09:57:45.026Z,2.47
2017-07-03T10:00:13.344Z,3.63
2017-07-03T10:02:42.071Z,1.90
2017-07-03T10:05:10.361Z,1.83
2017-07-03T10:07:38.657Z,1.70
2017-07-03T10:10:07.300Z,4.37
2017-07-03T10:12:35.586Z,2.20
2017-07-03T10:15:03.917Z,1.73
2017-07-03T10:17:32.631Z,1.67
2017-07-03T10:20:00.906Z,2.73
2017-07-03T10:22:29.189Z,3.47
2017-07-03T10:24:57.875Z,3.80
2017-07-03T10:27:26.169Z,4.13
2017-07-03T10:29:54.693Z,5.20
2017-07-03T10:32:23.445Z,8.53
2017-07-03T10:34:51.740Z,6.93
2017-07-03T10:37:20.787Z,2.53
2017-07-03T10:39:49.582Z,5.73
2017-07-03T10:42:17.897Z,12.10
2017-07-03T10:44:47.061Z,10.13
2017-07-03T10:47:15.765Z,5.70
2017-07-03T10:49:44.091Z,10.47
2017-07-03T10:52:12.381Z,7.70
2017-07-03T10:54:41.068Z,3.73
2017-07-03T10:57:09.345Z,9.73
2017-07-03T10:59:37.644Z,6.37
2017-07-03T11:02:06.300Z,5.03
2017-07-03T11:04:34.597Z,11.70
2017-07-03T11:07:03.970Z,5.73
2017-07-03T11:09:32.692Z,3.07
2017-07-03T11:12:01.355Z,2.50
2017-07-03T11:14:29.713Z,4.83
2017-07-03T11:16:58.459Z,4.37
2017-07-03T11:19:27.521Z,4.13
2017-07-03T11:21:55.813Z,6.53
2017-07-03T11:24:24.464Z,8.00
2017-07-03T11:26:52.748Z,2.67
2017-07-03T11:29:21.056Z,2.10
2017-07-03T11:31:49.709Z,5.73
2017-07-03T11:34:18.068Z,3.03
2017-07-03T11:36:46.367Z,1.97
2017-07-03T11:39:15.142Z,2.93
2017-07-03T11:41:43.442Z,1.40
2017-07-03T11:44:11.782Z,2.10
2017-07-03T11:46:40.471Z,3.10
2017-07-03T11:49:08.746Z,4.53
2017-07-03T11:51:37.076Z,2.03
2017-07-03T11:54:06.662Z,2.70
2017-07-03T11:56:35.169Z,2.50
2017-07-03T11:59:04.281Z,3.50
2017-07-03T12:01:32.905Z,4.87
2017-07-03T12:04:01.209Z,2.17
2017-07-03T12:06:29.534Z,2.27
2017-07-03T12:08:58.152Z,4.70
2017-07-03T12:11:26.585Z,4.30
2017-07-03T12:13:54.910Z,3.40
2017-07-03T12:16:23.696Z,4.53
2017-07-03T12:18:51.984Z,4.60
2017-07-03T12:21:20.267Z,2.83
2017-07-03T12:23:48.914Z,3.63
2017-07-03T12:26:17.221Z,2.67
2017-07-03T12:28:45.550Z,5.60
2017-07-03T12:31:14.243Z,5.57
2017-07-03T12:33:42.520Z,2.80
2017-07-03T12:36:10.886Z,2.23
2017-07-03T12:38:39.611Z,2.33
2017-07-03T12:41:07.896Z,3.47
2017-07-03T12:43:36.192Z,4.90
2017-07-03T12:46:05.637Z,3.40
2017-07-03T12:48:33.925Z,2.00
2017-07-03T12:51:02.249Z,2.10
2017-07-03T12:53:31.704Z,3.30
2017-07-03T12:55:59.993Z,1.30
2017-07-03T12:58:28.270Z,2.30
2017-07-03T13:00:57.036Z,2.50
2017-07-03T13:03:25.328Z,2.03
2017-07-03T13:05:53.621Z,3.17
2017-07-03T13:08:22.264Z,1.77
2017-07-03T13:10:50.570Z,2.87
2017-07-03T13:13:18.857Z,4.13
2017-07-03T13:15:47.489Z,1.50
2017-07-03T13:18:15.778Z,1.80
2017-07-03T13:20:44.084Z,3.00
2017-07-03T13:23:12.928Z,1.50
2017-07-03T13:25:41.209Z,2.47
2017-07-03T13:28:09.510Z,2.40
2017-07-03T13:30:38.247Z,1.97
2017-07-03T13:33:06.552Z,1.67
2017-07-03T13:35:34.871Z,2.10
2017-07-03T13:38:03.623Z,3.33
2017-07-03T13:40:31.919Z,1.93
2017-07-03T13:43:00.197Z,1.53
2017-07-03T13:45:28.881Z,1.53
2017-07-03T13:47:57.173Z,1.67
2017-07-03T13:50:26.253Z,3.37
2017-07-03T13:52:54.919Z,1.67
2017-07-03T13:55:23.189Z,1.30
2017-07-03T13:57:51.497Z,2.00
2017-07-03T14:00:20.169Z,2.17
2017-07-03T14:02:48.460Z,1.57
2017-07-03T14:05:16.896Z,1.00
2017-07-03T14:07:45.602Z,6.43
2017-07-03T14:10:13.972Z,2.23
2017-07-03T14:12:42.311Z,2.37
2017-07-03T14:15:11.031Z,1.90
2017-07-03T14:17:39.477Z,1.30
2017-07-03T14:20:07.763Z,1.30
2017-07-03T14:22:36.477Z,1.97
2017-07-03T14:25:04.771Z,2.17
2017-07-03T14:27:33.050Z,1.30
2017-07-03T14:30:01.732Z,2.70
2017-07-03T14:32:30.064Z,1.27
2017-07-03T14:34:58.368Z,7.20
2017-07-03T14:37:27.066Z,1.23
2017-07-03T14:39:55.376Z,1.30
2017-07-03T14:42:23.669Z,2.60
2017-07-03T14:44:52.389Z,2.87
2017-07-03T14:49:59.722Z,2.70
2017-07-03T14:52:28.777Z,3.13
2017-07-03T14:54:57.060Z,1.90
2017-07-03T14:57:25.836Z,7.83
2017-07-03T14:59:54.110Z,1.37
2017-07-03T15:02:22.466Z,1.27
2017-07-03T15:04:51.212Z,1.33
2017-07-03T15:07:19.655Z,1.00
2017-07-03T15:09:47.939Z,1.70
2017-07-03T15:12:16.711Z,1.13
2017-07-03T15:14:45.017Z,1.73
2017-07-03T15:17:13.346Z,1.53
2017-07-03T15:19:42.143Z,1.93
2017-07-03T15:22:10.439Z,2.60
2017-07-03T15:24:38.734Z,2.47
2017-07-03T15:27:07.570Z,1.40
2017-07-03T15:29:35.867Z,2.03
2017-07-03T15:32:04.166Z,2.00
2017-07-03T15:34:32.839Z,0.70
2017-07-03T15:37:01.151Z,2.90
2017-07-03T15:39:30.202Z,1.80
2017-07-03T15:41:58.908Z,1.90
2017-07-03T15:44:27.250Z,0.93
2017-07-03T15:46:55.528Z,0.80
2017-07-03T15:49:24.178Z,1.23
2017-07-03T15:51:53.272Z,1.83
2017-07-03T15:54:22.334Z,1.17
2017-07-03T15:56:51.171Z,3.60
2017-07-03T15:59:19.585Z,1.80
2017-07-03T16:01:47.933Z,1.37
2017-07-03T16:04:16.655Z,1.47
2017-07-03T16:06:45.064Z,3.73
2017-07-03T16:09:14.306Z,1.60
2017-07-03T16:11:43.000Z,1.53
2017-07-03T16:14:11.302Z,4.03
2017-07-03T16:16:39.580Z,1.40
2017-07-03T16:19:08.254Z,1.93
2017-07-03T16:21:36.545Z,1.47
2017-07-03T16:24:04.831Z,2.60
2017-07-03T16:26:33.581Z,2.23
2017-07-03T16:29:01.884Z,2.93
2017-07-03T16:31:30.161Z,1.60
2017-07-03T16:33:58.804Z,2.60
2017-07-03T16:36:27.068Z,3.17
2017-07-03T16:38:55.523Z,4.13
2017-07-03T16:41:24.163Z,1.10
2017-07-03T16:43:52.470Z,11.30
2017-07-03T16:46:22.172Z,3.47
2017-07-03T16:48:50.821Z,2.43
2017-07-03T16:51:19.115Z,1.00
2017-07-03T16:53:47.622Z,1.83
2017-07-03T16:56:17.013Z,2.27
2017-07-03T16:58:45.302Z,3.90
2017-07-03T17:01:14.387Z,2.17
2017-07-03T17:03:43.845Z,4.57
2017-07-03T17:06:12.173Z,1.47
2017-07-03T17:08:41.235Z,3.43
2017-07-03T17:11:09.929Z,2.27
2017-07-03T17:13:38.259Z,6.83
2017-07-03T17:16:06.545Z,2.40
2017-07-03T17:18:35.249Z,1.20
2017-07-03T17:21:03.564Z,2.80
2017-07-03T17:23:31.846Z,2.40
2017-07-03T17:26:01.297Z,4.10
2017-07-03T17:28:29.557Z,7.33
2017-07-03T17:30:57.883Z,2.10
2017-07-03T17:33:26.674Z,3.97
2017-07-03T17:35:55.953Z,3.40
2017-07-03T17:38:24.285Z,2.50
2017-07-03T17:40:52.994Z,2.60
2017-07-03T17:43:21.281Z,7.53
2017-07-03T17:45:49.586Z,3.23
2017-07-03T17:48:19.055Z,3.77
2017-07-03T17:50:47.366Z,2.37
2017-07-03T17:53:15.713Z,5.37
2017-07-03T17:55:44.411Z,3.17
2017-07-03T17:58:12.703Z,5.10
2017-07-03T18:00:41.037Z,1.40
2017-07-03T18:03:09.751Z,1.67
2017-07-03T18:05:38.065Z,4.23
2017-07-03T18:08:06.341Z,2.27
2017-07-03T18:10:35.065Z,4.67
2017-07-03T18:13:03.535Z,2.70
2017-07-03T18:15:31.841Z,3.50
2017-07-03T18:18:00.623Z,5.50
2017-07-03T18:20:28.975Z,2.60
2017-07-03T18:22:57.284Z,7.80
2017-07-03T18:25:26.070Z,7.23
2017-07-03T18:27:54.393Z,3.33
2017-07-03T18:30:22.777Z,2.20
2017-07-03T18:32:51.495Z,5.00
2017-07-03T18:35:19.871Z,3.43
2017-07-03T18:37:48.145Z,2.30
2017-07-03T18:40:16.860Z,3.07
2017-07-03T18:42:45.140Z,6.70
2017-07-03T18:45:13.460Z,4.90
2017-07-03T18:47:42.251Z,2.70
2017-07-03T18:50:10.566Z,3.10
2017-07-03T18:52:38.867Z,1.60
2017-07-03T18:55:08.313Z,2.30
2017-07-03T18:57:36.651Z,2.97
2017-07-03T19:00:05.778Z,2.43
2017-07-03T19:02:34.487Z,2.37
2017-07-03T19:05:02.948Z,2.53
2017-07-03T19:07:31.261Z,3.40
2017-07-03T19:09:59.923Z,1.80
2017-07-03T19:12:28.253Z,1.70
2017-07-03T19:14:56.557Z,2.57
2017-07-03T19:17:25.280Z,7.47
2017-07-03T19:19:53.592Z,3.73
2017-07-03T19:22:21.949Z,1.93
2017-07-03T19:24:51.436Z,2.17
2017-07-03T19:27:19.727Z,6.23
2017-07-03T19:29:48.045Z,2.63
2017-07-03T19:32:16.755Z,1.93
2017-07-03T19:34:46.151Z,5.90
2017-07-03T19:37:14.452Z,1.60
2017-07-03T19:39:43.081Z,2.40
2017-07-03T19:42:11.571Z,11.77
2017-07-03T19:44:39.871Z,7.13
2017-07-03T19:47:09.335Z,3.50
2017-07-03T19:49:37.836Z,1.63
2017-07-03T19:52:06.145Z,2.97
2017-07-03T19:54:34.937Z,3.40
2017-07-03T19:57:03.388Z,11.13
2017-07-03T19:59:31.800Z,5.00
2017-07-03T20:02:00.421Z,6.90
2017-07-03T20:04:28.731Z,3.97
2017-07-03T20:06:57.095Z,2.90
2017-07-03T20:09:26.033Z,2.50
2017-07-03T20:11:54.444Z,1.97
2017-07-03T20:14:22.722Z,2.83
2017-07-03T20:16:51.374Z,2.10
2017-07-03T20:19:19.674Z,2.90
2017-07-03T20:21:48.101Z,3.07
2017-07-03T20:24:16.747Z,2.53
2017-07-03T20:26:45.038Z,2.37
2017-07-03T20:29:13.336Z,2.50
2017-07-03T20:31:41.961Z,2.53
2017-07-03T20:34:11.024Z,6.40
2017-07-03T20:36:39.318Z,3.03
2017-07-03T20:39:08.158Z,1.43
2017-07-03T20:41:36.448Z,3.33
2017-07-03T20:44:04.768Z,4.00
2017-07-03T20:46:34.329Z,2.20
2017-07-03T20:49:02.756Z,3.33
2017-07-03T20:51:31.839Z,2.67
2017-07-03T20:54:00.745Z,2.33
2017-07-03T20:56:29.809Z,1.57
2017-07-03T20:58:58.110Z,3.60
2017-07-03T21:01:27.638Z,3.30
2017-07-03T21:03:56.040Z,4.07
2017-07-03T21:06:24.994Z,6.10
2017-07-03T21:08:53.735Z,2.57
2017-07-03T21:11:22.043Z,3.50
2017-07-03T21:13:51.101Z,2.17
2017-07-03T21:16:19.910Z,3.90
2017-07-03T21:18:48.244Z,2.10
2017-07-03T21:21:16.544Z,4.43
2017-07-03T21:23:45.204Z,4.03
2017-07-03T21:26:13.514Z,2.57
2017-07-03T21:28:41.816Z,1.53
2017-07-03T21:31:11.324Z,2.23
2017-07-03T21:33:40.404Z,3.53
2017-07-03T21:36:08.681Z,2.97
2017-07-03T21:38:37.442Z,5.10
2017-07-03T21:41:05.742Z,2.00
2017-07-03T21:43:34.033Z,3.10
2017-07-03T21:46:03.499Z,3.97
2017-07-03T21:48:31.804Z,1.80
2017-07-03T21:51:00.158Z,2.67
2017-07-03T21:53:28.929Z,10.07
2017-07-03T21:55:57.223Z,8.80
2017-07-03T21:58:25.560Z,10.33
2017-07-03T22:00:54.278Z,16.13
2017-07-03T22:03:22.537Z,9.00
2017-07-03T22:05:50.820Z,17.87
2017-07-03T22:08:19.506Z,7.67
2017-07-03T22:10:47.806Z,10.13
2017-07-03T22:13:16.095Z,7.20
2017-07-03T22:15:45.586Z,12.73
2017-07-03T22:18:13.901Z,10.00
2017-07-03T22:20:42.258Z,8.40
2017-07-03T22:23:11.706Z,9.07
2017-07-03T22:25:39.995Z,10.73
2017-07-03T22:28:08.297Z,11.93
2017-07-03T22:30:37.059Z,8.70
2017-07-03T22:33:05.350Z,10.60
2017-07-03T22:35:33.733Z,8.40
2017-07-03T22:38:02.507Z,11.77
2017-07-03T22:40:30.803Z,8.27
2017-07-03T22:42:59.867Z,13.03
2017-07-03T22:45:28.551Z,13.30
2017-07-03T22:47:56.838Z,9.90
2017-07-03T22:50:25.179Z,12.67
2017-07-03T22:52:53.880Z,7.23
2017-07-03T22:55:22.175Z,10.30
2017-07-03T22:57:50.473Z,7.00
2017-07-03T23:00:20.059Z,6.90
2017-07-03T23:02:48.378Z,13.17
2017-07-03T23:05:16.681Z,10.27
2017-07-03T23:07:45.369Z,6.77
2017-07-03T23:10:13.621Z,7.47
2017-07-03T23:12:41.904Z,8.40
2017-07-03T23:15:10.613Z,10.50
2017-07-03T23:17:38.910Z,5.37
2017-07-03T23:20:07.200Z,8.60
2017-07-03T23:22:35.858Z,11.43
2017-07-03T23:25:04.130Z,11.73
2017-07-03T23:27:32.560Z,6.47
2017-07-03T23:30:01.197Z,8.43
2017-07-03T23:32:29.517Z,10.03
2017-07-03T23:34:58.557Z,8.60
2017-07-03T23:37:27.221Z,9.47
2017-07-03T23:39:55.496Z,9.33
2017-07-03T23:42:23.767Z,12.47
2017-07-03T23:44:52.410Z,13.40
2017-07-03T23:47:21.466Z,8.87
2017-07-03T23:49:49.853Z,9.43
2017-07-03T23:52:18.490Z,10.83
2017-07-03T23:54:46.797Z,14.90
2017-07-03T23:57:15.104Z,8.80
2017-07-03T23:59:43.941Z,11.30
